Time;durP1;ratioP1;P1;durP2;ratioP2;P2;SDS_P1;SDS_P2;PMS_P1;PMS_P2;Temp;Humidity;BMP_temperature;BMP_pressure;BME280_temperature;BME280_humidity;BME280_pressure;Samples;Min_cycle;Max_cycle;Signal;HPM_P1;HPM_P2
2021/11/03 00:02:06;;;;;;;;;21.00;19.67;;;;;-149.00;100.00;66333.84;5139250;27;9133;-77
2021/11/03 00:04:34;;;;;;;;;26.00;24.00;;;;;-149.00;100.00;66333.84;5139213;27;8788;-77
2021/11/03 00:07:00;;;;;;;;;23.00;23.00;;;;;-149.00;100.00;66333.84;5139295;27;9308;-77
2021/11/03 00:09:27;;;;;;;;;26.00;23.33;;;;;-149.00;100.00;66333.84;5139191;27;9093;-77
2021/11/03 00:11:52;;;;;;;;;20.67;19.00;;;;;-149.00;100.00;66333.84;5139385;27;8814;-77
2021/11/03 00:14:18;;;;;;;;;21.67;21.67;;;;;-149.00;100.00;66333.84;5137745;27;10141;-77
2021/11/03 00:16:44;;;;;;;;;22.00;20.00;;;;;-149.00;100.00;66333.84;5139245;27;8919;-79
2021/11/03 00:19:09;;;;;;;;;21.00;19.00;;;;;-149.00;100.00;66333.84;5139240;27;8784;-80
2021/11/03 00:21:34;;;;;;;;;13.00;12.00;;;;;-149.00;100.00;66333.84;5137645;27;8841;-79
2021/11/03 00:24:00;;;;;;;;;11.67;11.00;;;;;-149.00;100.00;66333.84;5138939;27;9004;-79
2021/11/03 00:26:25;;;;;;;;;13.67;11.00;;;;;-149.00;100.00;66333.84;5139043;27;8863;-79
2021/11/03 00:28:51;;;;;;;;;12.33;12.00;;;;;-149.00;100.00;66333.84;5137520;27;8832;-77
2021/11/03 00:31:16;;;;;;;;;12.67;11.67;;;;;-149.00;100.00;66333.84;5154545;27;9214;-77
2021/11/03 00:33:42;;;;;;;;;14.00;14.00;;;;;-149.00;100.00;66333.84;5158313;27;8801;-77
2021/11/03 00:36:07;;;;;;;;;14.67;14.67;;;;;-149.00;100.00;66333.84;5159736;27;8823;-77
2021/11/03 00:38:33;;;;;;;;;11.33;10.33;;;;;-149.00;100.00;66333.84;5159419;27;8770;-78
2021/11/03 00:40:59;;;;;;;;;15.67;15.33;;;;;-149.00;100.00;66333.84;5159547;27;8750;-77
2021/11/03 00:43:25;;;;;;;;;16.67;16.67;;;;;-149.00;100.00;66333.84;5159450;27;9006;-77
2021/11/03 00:45:50;;;;;;;;;15.00;14.00;;;;;-149.00;100.00;66333.84;5159574;27;9583;-80
2021/11/03 00:48:17;;;;;;;;;13.67;13.67;;;;;-149.00;100.00;66333.84;5159422;27;8777;-80
2021/11/03 00:50:43;;;;;;;;;12.33;11.33;;;;;-149.00;100.00;66333.84;5159455;27;8877;-80
2021/11/03 00:53:09;;;;;;;;;15.75;12.25;;;;;-149.00;100.00;66333.84;5159249;27;8900;-80
2021/11/03 00:55:34;;;;;;;;;10.00;10.00;;;;;-149.00;100.00;66333.84;5157743;27;9593;-79
2021/11/03 00:58:00;;;;;;;;;11.67;11.67;;;;;-149.00;100.00;66333.84;5159306;27;8804;-79
2021/11/03 01:00:25;;;;;;;;;13.33;11.67;;;;;-149.00;100.00;66333.84;5158134;27;8970;-77
2021/11/03 01:02:51;;;;;;;;;14.50;13.50;;;;;-149.00;100.00;66333.84;5158962;27;9580;-77
2021/11/03 01:05:20;;;;;;;;;13.00;13.00;;;;;-149.00;100.00;66333.84;5159151;27;8782;-77
2021/11/03 01:07:46;;;;;;;;;12.33;10.00;;;;;-149.00;100.00;66333.84;5157600;27;8798;-77
2021/11/03 01:10:12;;;;;;;;;12.33;12.33;;;;;-149.00;100.00;66333.84;5157723;27;8873;-77
2021/11/03 01:12:38;;;;;;;;;12.33;12.33;;;;;-149.00;100.00;66333.84;5159232;27;8769;-77
2021/11/03 01:15:06;;;;;;;;;13.00;12.75;;;;;-149.00;100.00;66333.84;5159048;27;8852;-80
2021/11/03 01:17:32;;;;;;;;;15.00;14.25;;;;;-149.00;100.00;66333.84;5159056;27;8746;-79
2021/11/03 01:19:57;;;;;;;;;10.67;10.67;;;;;-149.00;100.00;66333.84;5157529;27;8882;-79
2021/11/03 01:22:23;;;;;;;;;12.33;11.33;;;;;-149.00;100.00;66333.84;5158754;27;8805;-79
2021/11/03 01:24:48;;;;;;;;;10.00;9.67;;;;;-149.00;100.00;66333.84;5158720;27;8785;-80
2021/11/03 01:27:14;;;;;;;;;13.00;12.33;;;;;-149.00;100.00;66333.84;5158745;27;8847;-79
2021/11/03 01:29:39;;;;;;;;;10.67;10.67;;;;;-149.00;100.00;66333.84;5155753;27;8785;-77
2021/11/03 01:32:05;;;;;;;;;11.00;10.00;;;;;-149.00;100.00;66333.84;5138120;27;8768;-76
2021/11/03 01:34:31;;;;;;;;;11.75;11.75;;;;;-149.00;100.00;66333.84;5138096;27;8764;-77
2021/11/03 01:36:56;;;;;;;;;11.00;10.00;;;;;-149.00;100.00;66333.84;5137942;27;8789;-76
2021/11/03 01:39:21;;;;;;;;;10.33;10.00;;;;;-149.00;100.00;66333.84;5137707;27;8832;-77
2021/11/03 01:41:47;;;;;;;;;8.00;8.00;;;;;-149.00;100.00;66333.84;5136432;27;8911;-76
2021/11/03 01:44:15;;;;;;;;;12.00;12.00;;;;;-149.00;100.00;66333.84;5136480;27;8824;-75
2021/11/03 01:46:49;;;;;;;;;14.75;12.25;;;;;-149.00;100.00;66333.84;5137869;27;8783;-79
2021/11/03 01:49:21;;;;;;;;;10.00;10.00;;;;;-149.00;100.00;66333.84;5135824;27;8780;-76
2021/11/03 01:51:55;;;;;;;;;11.00;11.00;;;;;-149.00;100.00;66333.84;5137685;27;8768;-79
2021/11/03 01:54:40;;;;;;;;;11.33;10.67;;;;;-149.00;100.00;66333.84;5137313;27;8940;-79
2021/11/03 01:57:09;;;;;;;;;11.25;11.00;;;;;-149.00;100.00;66333.84;5137683;27;8924;-79
2021/11/03 01:59:40;;;;;;;;;11.67;11.67;;;;;-149.00;100.00;66333.84;5137660;27;8729;-77
2021/11/03 02:02:06;;;;;;;;;9.25;9.25;;;;;-149.00;100.00;66333.84;5135860;27;8887;-79
2021/11/03 02:04:33;;;;;;;;;10.33;9.67;;;;;-149.00;100.00;66333.84;5137351;27;8890;-79
2021/11/03 02:07:02;;;;;;;;;9.25;9.25;;;;;-149.00;100.00;66333.84;5137531;27;8859;-79
2021/11/03 02:09:27;;;;;;;;;10.25;9.00;;;;;-149.00;100.00;66333.84;5137329;27;8793;-79
2021/11/03 02:11:53;;;;;;;;;10.67;10.67;;;;;-149.00;100.00;66333.84;5137343;27;8792;-79
2021/11/03 02:14:18;;;;;;;;;10.00;10.00;;;;;-149.00;100.00;66333.84;5137506;27;8808;-77
2021/11/03 02:16:47;;;;;;;;;10.00;10.00;;;;;-149.00;100.00;66333.84;5118804;27;8817;-76
2021/11/03 02:19:18;;;;;;;;;8.25;8.25;;;;;-149.00;100.00;66333.84;5137468;27;8769;-76
2021/11/03 02:21:50;;;;;;;;;8.50;8.50;;;;;-149.00;100.00;66333.84;5137220;27;8819;-76
2021/11/03 02:24:31;;;;;;;;;8.25;8.25;;;;;-149.00;100.00;66333.84;5137152;27;8796;-77
2021/11/03 02:26:58;;;;;;;;;7.00;7.00;;;;;-149.00;100.00;66333.84;5153254;27;8800;-76
2021/11/03 02:29:25;;;;;;;;;7.00;7.00;;;;;-149.00;100.00;66333.84;5138082;27;8879;-76
2021/11/03 02:31:54;;;;;;;;;7.00;7.00;;;;;-149.00;100.00;66333.84;5156613;27;8808;-79
2021/11/03 02:34:26;;;;;;;;;9.00;8.75;;;;;-149.00;100.00;66333.84;5158000;27;8870;-79
2021/11/03 02:37:23;;;;;;;;;7.00;7.00;;;;;-149.00;100.00;66333.84;5157681;27;8761;-78
2021/11/03 02:39:53;;;;;;;;;9.75;9.75;;;;;-149.00;100.00;66333.84;5157603;27;8782;-79
2021/11/03 02:42:19;;;;;;;;;7.75;7.75;;;;;-149.00;100.00;66333.84;5157786;27;8828;-78
2021/11/03 02:44:47;;;;;;;;;8.67;8.33;;;;;-149.00;100.00;66333.84;5156508;27;8874;-76
2021/11/03 02:47:12;;;;;;;;;6.50;6.00;;;;;-149.00;100.00;66333.84;5157806;27;8743;-77
2021/11/03 02:49:40;;;;;;;;;7.33;6.67;;;;;-149.00;100.00;66333.84;5156381;27;9522;-76
2021/11/03 02:52:21;;;;;;;;;7.25;6.25;;;;;-149.00;100.00;66333.84;5157686;27;9696;-77
2021/11/03 02:54:47;;;;;;;;;6.75;6.75;;;;;-149.00;100.00;66333.84;5157369;27;8847;-76
2021/11/03 02:57:13;;;;;;;;;5.33;5.33;;;;;-149.00;100.00;66333.84;5157719;27;8774;-76
2021/11/03 02:59:39;;;;;;;;;8.00;6.33;;;;;-149.00;100.00;66333.84;5157760;27;8781;-76
2021/11/03 03:02:05;;;;;;;;;7.00;7.00;;;;;-149.00;100.00;66333.84;5159704;27;8781;-78
2021/11/03 03:04:37;;;;;;;;;5.75;5.00;;;;;-149.00;100.00;66333.84;5159600;27;8781;-78
2021/11/03 03:07:03;;;;;;;;;6.00;6.00;;;;;-149.00;100.00;66333.84;5159591;27;9427;-79
2021/11/03 03:09:29;;;;;;;;;7.00;6.00;;;;;-149.00;100.00;66333.84;5159523;27;8928;-78
2021/11/03 03:11:58;;;;;;;;;6.00;6.00;;;;;-149.00;100.00;66333.84;5161129;27;8977;-79
2021/11/03 03:14:27;;;;;;;;;6.75;5.75;;;;;-149.00;100.00;66333.84;5161099;27;8801;-78
2021/11/03 03:16:53;;;;;;;;;5.75;4.75;;;;;-149.00;100.00;66333.84;5159672;27;8794;-76
2021/11/03 03:19:18;;;;;;;;;5.25;4.00;;;;;-149.00;100.00;66333.84;5161069;27;8763;-77
2021/11/03 03:21:44;;;;;;;;;5.00;5.00;;;;;-149.00;100.00;66333.84;5160809;27;8846;-76
2021/11/03 03:24:11;;;;;;;;;3.50;3.50;;;;;-149.00;100.00;66333.84;5159277;27;8793;-75
2021/11/03 03:26:38;;;;;;;;;4.75;4.25;;;;;-149.00;100.00;66333.84;5160857;27;8770;-76
2021/11/03 03:29:05;;;;;;;;;5.50;5.00;;;;;-149.00;100.00;66333.84;5159441;27;8815;-75
2021/11/03 03:31:31;;;;;;;;;5.25;5.25;;;;;-149.00;100.00;66333.84;5141498;27;8885;-79
2021/11/03 03:34:00;;;;;;;;;5.25;5.00;;;;;-149.00;100.00;66333.84;5140074;27;8772;-78
2021/11/03 03:36:26;;;;;;;;;6.00;5.25;;;;;-149.00;100.00;66333.84;5138497;27;8796;-78
2021/11/03 03:38:52;;;;;;;;;5.50;5.50;;;;;-149.00;100.00;66333.84;5139685;27;8837;-78
2021/11/03 03:41:19;;;;;;;;;5.00;5.00;;;;;-149.00;100.00;66333.84;5139952;27;8769;-78
2021/11/03 03:43:44;;;;;;;;;6.75;6.75;;;;;-149.00;100.00;66333.84;5138404;27;8819;-76
2021/11/03 03:46:11;;;;;;;;;6.00;6.00;;;;;-149.00;100.00;66333.84;5139857;27;8785;-76
2021/11/03 03:48:37;;;;;;;;;7.50;6.75;;;;;-149.00;100.00;66333.84;5139869;27;8769;-76
2021/11/03 03:51:04;;;;;;;;;8.75;8.75;;;;;-149.00;100.00;66333.84;5139751;27;8870;-76
2021/11/03 03:53:30;;;;;;;;;10.00;7.00;;;;;-149.00;100.00;66333.84;5137975;27;9424;-76
2021/11/03 03:55:55;;;;;;;;;11.00;10.00;;;;;-149.00;100.00;66333.84;5138235;27;8808;-76
2021/11/03 03:58:21;;;;;;;;;9.00;8.33;;;;;-149.00;100.00;66333.84;5139754;27;8895;-76
2021/11/03 04:00:48;;;;;;;;;11.33;11.00;;;;;-149.00;100.00;66333.84;5139539;27;8811;-78
2021/11/03 04:03:14;;;;;;;;;9.50;8.75;;;;;-149.00;100.00;66333.84;5139249;27;9674;-78
2021/11/03 04:05:43;;;;;;;;;8.67;8.67;;;;;-149.00;100.00;66333.84;5139244;27;8874;-78
2021/11/03 04:08:09;;;;;;;;;11.00;10.00;;;;;-149.00;100.00;66333.84;5139249;27;8795;-78
2021/11/03 04:10:34;;;;;;;;;7.67;7.67;;;;;-149.00;100.00;66333.84;5139304;27;8764;-78
2021/11/03 04:13:00;;;;;;;;;10.00;9.33;;;;;-149.00;100.00;66333.84;5137418;27;9563;-75
2021/11/03 04:15:25;;;;;;;;;11.67;11.00;;;;;-149.00;100.00;66333.84;5139251;27;8773;-76
2021/11/03 04:17:51;;;;;;;;;8.67;8.00;;;;;-149.00;100.00;66333.84;5137905;27;8804;-75
2021/11/03 04:20:16;;;;;;;;;9.00;9.00;;;;;-149.00;100.00;66333.84;5137784;27;8772;-76
2021/11/03 04:22:43;;;;;;;;;12.33;10.67;;;;;-149.00;100.00;66333.84;5139163;27;8828;-75
2021/11/03 04:25:11;;;;;;;;;11.75;9.25;;;;;-149.00;100.00;66333.84;5137573;27;8907;-75
2021/11/03 04:27:36;;;;;;;;;11.75;10.75;;;;;-149.00;100.00;66333.84;5137795;27;8788;-76
2021/11/03 04:30:04;;;;;;;;;9.00;9.00;;;;;-149.00;100.00;66333.84;5145375;27;8874;-78
2021/11/03 04:32:29;;;;;;;;;9.50;8.25;;;;;-149.00;100.00;66333.84;5159712;27;8774;-78
2021/11/03 04:34:55;;;;;;;;;9.00;8.00;;;;;-149.00;100.00;66333.84;5158301;27;8816;-78
2021/11/03 04:37:20;;;;;;;;;10.00;9.00;;;;;-149.00;100.00;66333.84;5159512;27;8781;-77
2021/11/03 04:39:46;;;;;;;;;10.00;10.00;;;;;-149.00;100.00;66333.84;5158024;27;8811;-78
2021/11/03 04:42:11;;;;;;;;;9.00;9.00;;;;;-149.00;100.00;66333.84;5158234;27;8813;-77
2021/11/03 04:44:37;;;;;;;;;9.00;9.00;;;;;-149.00;100.00;66333.84;5159668;27;8774;-76
2021/11/03 04:47:03;;;;;;;;;11.25;9.50;;;;;-149.00;100.00;66333.84;5159720;27;8777;-76
2021/11/03 04:49:29;;;;;;;;;10.50;9.50;;;;;-149.00;100.00;66333.84;5159641;27;8854;-76
2021/11/03 04:51:54;;;;;;;;;11.67;10.67;;;;;-149.00;100.00;66333.84;5159482;27;8929;-76
2021/11/03 04:54:20;;;;;;;;;9.33;9.33;;;;;-149.00;100.00;66333.84;5159288;27;8818;-76
2021/11/03 04:56:45;;;;;;;;;12.33;10.00;;;;;-149.00;100.00;66333.84;5159358;27;8785;-76
2021/11/03 04:59:11;;;;;;;;;11.00;10.00;;;;;-149.00;100.00;66333.84;5159541;27;8762;-76
2021/11/03 05:01:37;;;;;;;;;8.00;8.00;;;;;-149.00;100.00;66333.84;5159069;27;8824;-78
2021/11/03 05:04:02;;;;;;;;;10.00;10.00;;;;;-149.00;100.00;66333.84;5157767;27;8818;-77
2021/11/03 05:06:30;;;;;;;;;10.67;10.67;;;;;-149.00;100.00;66333.84;5158993;27;8790;-78
2021/11/03 05:08:56;;;;;;;;;10.25;10.00;;;;;-149.00;100.00;66333.84;5158908;27;8788;-77
2021/11/03 05:11:22;;;;;;;;;10.33;10.33;;;;;-149.00;100.00;66333.84;5159142;27;8766;-78
2021/11/03 05:13:48;;;;;;;;;13.00;11.33;;;;;-149.00;100.00;66333.84;5157675;27;9706;-75
2021/11/03 05:16:17;;;;;;;;;4.00;3.00;;;;;-149.00;100.00;66333.84;5159245;27;8872;-75
2021/11/03 05:18:43;;;;;;;;;15.33;13.00;;;;;-149.00;100.00;66333.84;5159009;27;11007;-75
2021/11/03 05:21:10;;;;;;;;;14.67;14.67;;;;;-149.00;100.00;66333.84;5159012;27;8933;-76
2021/11/03 05:23:36;;;;;;;;;13.67;11.33;;;;;-149.00;100.00;66333.84;5156311;27;8810;-76
2021/11/03 05:26:01;;;;;;;;;14.33;12.00;;;;;-149.00;100.00;66333.84;5158955;27;9053;-75
2021/11/03 05:28:27;;;;;;;;;12.67;12.67;;;;;-149.00;100.00;66333.84;5159009;27;8774;-76
2021/11/03 05:30:52;;;;;;;;;15.67;13.67;;;;;-149.00;100.00;66333.84;5143839;27;9643;-76
2021/11/03 05:33:18;;;;;;;;;19.67;18.33;;;;;-149.00;100.00;66333.84;5138050;27;8830;-76
2021/11/03 05:35:44;;;;;;;;;15.33;15.33;;;;;-149.00;100.00;66333.84;5136726;27;8861;-75
2021/11/03 05:38:10;;;;;;;;;17.00;12.00;;;;;-149.00;100.00;66333.84;5136402;27;8784;-75
2021/11/03 05:40:35;;;;;;;;;17.33;15.67;;;;;-149.00;100.00;66333.84;5137701;27;11526;-76
2021/11/03 05:43:01;;;;;;;;;15.67;15.00;;;;;-149.00;100.00;66333.84;5137974;27;9060;-75
2021/11/03 05:45:27;;;;;;;;;22.67;20.00;;;;;-149.00;100.00;66333.84;5137876;27;8772;-75
2021/11/03 05:47:53;;;;;;;;;16.33;16.33;;;;;-149.00;100.00;66333.84;5136309;27;8773;-78
2021/11/03 05:50:37;;;;;;;;;17.33;17.33;;;;;-149.00;100.00;66333.84;5137646;27;9245;-77
2021/11/03 05:53:03;;;;;;;;;21.00;19.00;;;;;-149.00;100.00;66333.84;5137675;27;9426;-76
2021/11/03 05:55:30;;;;;;;;;19.00;18.00;;;;;-149.00;100.00;66333.84;5137101;27;10354;-77
2021/11/03 05:57:55;;;;;;;;;19.33;19.00;;;;;-149.00;100.00;66333.84;5136143;27;9434;-77
2021/11/03 06:00:26;;;;;;;;;19.00;18.67;;;;;-149.00;100.00;66333.84;5137577;27;9272;-77
2021/11/03 06:02:52;;;;;;;;;19.67;19.33;;;;;-149.00;100.00;66333.84;5137181;27;8808;-77
2021/11/03 06:05:17;;;;;;;;;19.33;18.33;;;;;-149.00;100.00;66333.84;5137408;27;9474;-77
2021/11/03 06:07:52;;;;;;;;;19.00;18.00;;;;;-149.00;100.00;66333.84;5137379;27;8785;-77
2021/11/03 06:10:22;;;;;;;;;21.00;20.00;;;;;-149.00;100.00;66333.84;5137353;27;8749;-78
2021/11/03 06:12:48;;;;;;;;;19.00;18.00;;;;;-149.00;100.00;66333.84;5137419;27;9259;-77
2021/11/03 06:15:13;;;;;;;;;17.00;17.00;;;;;-149.00;100.00;66333.84;5136071;27;9299;-75
2021/11/03 06:17:39;;;;;;;;;19.00;19.00;;;;;-149.00;100.00;66333.84;5137517;27;8792;-74
2021/11/03 06:20:05;;;;;;;;;22.67;19.00;;;;;-149.00;100.00;66333.84;5135941;27;8804;-75
2021/11/03 06:22:30;;;;;;;;;46.00;37.25;;;;;-149.00;100.00;66333.84;5137231;27;8777;-75
2021/11/03 06:24:57;;;;;;;;;20.67;20.67;;;;;-149.00;100.00;66333.84;5137088;27;10211;-76
2021/11/03 06:27:23;;;;;;;;;18.00;18.00;;;;;-149.00;100.00;66333.84;5137362;27;8752;-78
2021/11/03 06:29:48;;;;;;;;;19.33;17.67;;;;;-149.00;100.00;66333.84;5141424;27;9153;-78
2021/11/03 06:32:13;;;;;;;;;18.00;17.00;;;;;-149.00;100.00;66333.84;5156523;27;8883;-78
2021/11/03 06:34:39;;;;;;;;;18.33;18.33;;;;;-149.00;100.00;66333.84;5156549;27;8801;-77
2021/11/03 06:37:04;;;;;;;;;18.67;18.00;;;;;-149.00;100.00;66333.84;5161572;27;8786;-78
2021/11/03 06:39:31;;;;;;;;;21.67;21.67;;;;;-149.00;100.00;66333.84;5161352;27;8785;-75
2021/11/03 06:41:57;;;;;;;;;24.00;22.00;;;;;-149.00;100.00;66333.84;5161525;27;8766;-76
2021/11/03 06:44:22;;;;;;;;;22.67;21.00;;;;;-149.00;100.00;66333.84;5161491;27;9117;-76
2021/11/03 06:46:48;;;;;;;;;21.33;20.67;;;;;-149.00;100.00;66333.84;5161482;27;8835;-77
2021/11/03 06:49:13;;;;;;;;;17.67;16.33;;;;;-149.00;100.00;66333.84;5159849;27;8801;-77
2021/11/03 06:51:39;;;;;;;;;22.33;20.33;;;;;-149.00;100.00;66333.84;5161243;27;8786;-77
2021/11/03 06:54:05;;;;;;;;;19.33;18.33;;;;;-149.00;100.00;66333.84;5160894;27;8782;-76
2021/11/03 06:56:30;;;;;;;;;23.33;22.67;;;;;-149.00;100.00;66333.84;5161466;27;8786;-79
2021/11/03 06:58:56;;;;;;;;;26.33;24.33;;;;;-149.00;100.00;66333.84;5161312;27;8816;-76
2021/11/03 07:01:21;;;;;;;;;37.50;32.00;;;;;-149.00;100.00;66333.84;5161110;27;8894;-76
2021/11/03 07:03:47;;;;;;;;;33.00;29.67;;;;;-149.00;100.00;66333.84;5161213;27;8878;-76
2021/11/03 07:06:13;;;;;;;;;25.00;22.33;;;;;-149.00;100.00;66333.84;5159509;27;8789;-76
2021/11/03 07:08:39;;;;;;;;;22.67;18.67;;;;;-149.00;100.00;66333.84;5161134;27;9466;-76
2021/11/03 07:11:05;;;;;;;;;24.33;18.00;;;;;-149.00;100.00;66333.84;5161186;27;9257;-77
2021/11/03 07:13:30;;;;;;;;;23.00;21.67;;;;;-149.00;100.00;66333.84;5161204;27;8781;-78
2021/11/03 07:15:56;;;;;;;;;23.00;22.67;;;;;-149.00;100.00;66333.84;5161078;27;8813;-77
2021/11/03 07:18:22;;;;;;;;;25.67;23.67;;;;;-149.00;100.00;66333.84;5140992;27;8780;-77
2021/11/03 07:20:48;;;;;;;;;22.33;22.33;;;;;-149.00;100.00;66333.84;5136356;27;8800;-75
2021/11/03 07:23:16;;;;;;;;;23.00;22.67;;;;;-149.00;100.00;66333.84;5139919;27;11578;-74
2021/11/03 07:25:43;;;;;;;;;28.00;26.00;;;;;-149.00;100.00;66333.84;5138842;27;9511;-75
2021/11/03 07:28:11;;;;;;;;;27.00;26.00;;;;;-149.00;100.00;66333.84;5138869;27;9495;-77
2021/11/03 07:30:37;;;;;;;;;21.00;20.33;;;;;-149.00;100.00;66333.84;5149525;27;9262;-77
2021/11/03 07:33:05;;;;;;;;;22.33;22.33;;;;;-149.00;100.00;66333.84;5160805;27;9219;-77
2021/11/03 07:35:31;;;;;;;;;24.00;23.00;;;;;-149.00;100.00;66333.84;5160702;27;9332;-77
2021/11/03 07:37:58;;;;;;;;;24.00;21.67;;;;;-149.00;100.00;66333.84;5159102;27;9396;-76
2021/11/03 07:40:33;;;;;;;;;24.33;24.33;;;;;-149.00;100.00;66333.84;5159098;27;9328;-76
2021/11/03 07:42:59;;;;;;;;;22.33;21.33;;;;;-149.00;100.00;66333.84;5160572;27;9254;-75
2021/11/03 07:45:27;;;;;;;;;24.33;21.33;;;;;-149.00;100.00;66333.84;5160417;27;9252;-75
2021/11/03 07:47:52;;;;;;;;;26.67;25.33;;;;;-149.00;100.00;66333.84;5159676;27;9145;-75
2021/11/03 07:50:23;;;;;;;;;26.67;23.67;;;;;-149.00;100.00;66333.84;5160643;27;9317;-75
2021/11/03 07:52:49;;;;;;;;;27.33;26.00;;;;;-149.00;100.00;66333.84;5160381;27;8758;-75
2021/11/03 07:55:14;;;;;;;;;22.33;21.33;;;;;-149.00;100.00;66333.84;5158592;27;9359;-75
2021/11/03 07:57:41;;;;;;;;;22.67;21.67;;;;;-149.00;100.00;66333.84;5160357;27;8820;-74
2021/11/03 08:00:10;;;;;;;;;25.33;23.33;;;;;-149.00;100.00;66333.84;5160280;27;8797;-75
2021/11/03 08:02:35;;;;;;;;;25.00;23.00;;;;;-149.00;100.00;66333.84;5158587;27;9397;-77
2021/11/03 08:05:01;;;;;;;;;29.00;24.67;;;;;-149.00;100.00;66333.84;5159939;27;9424;-76
2021/11/03 08:07:26;;;;;;;;;20.67;17.67;;;;;-149.00;100.00;66333.84;5160231;27;8782;-76
2021/11/03 08:09:52;;;;;;;;;23.67;20.67;;;;;-149.00;100.00;66333.84;5159895;27;8840;-73
2021/11/03 08:12:19;;;;;;;;;22.00;18.67;;;;;-149.00;100.00;66333.84;5160115;27;8862;-79
2021/11/03 08:14:45;;;;;;;;;21.67;20.33;;;;;-149.00;100.00;66333.84;5142353;27;8745;-79
2021/11/03 08:17:15;;;;;;;;;26.00;23.33;;;;;-149.00;100.00;66333.84;5137616;27;9974;-79
2021/11/03 08:19:46;;;;;;;;;22.67;20.67;;;;;-149.00;100.00;66333.84;5136420;27;8823;-77
2021/11/03 08:22:13;;;;;;;;;22.33;21.67;;;;;-149.00;100.00;66333.84;5137337;27;9316;-75
2021/11/03 08:24:39;;;;;;;;;24.33;23.00;;;;;-149.00;100.00;66333.84;5138530;27;9666;-77
2021/11/03 08:27:05;;;;;;;;;22.33;21.00;;;;;-149.00;100.00;66333.84;5137551;27;9281;-75
2021/11/03 08:29:30;;;;;;;;;22.00;21.67;;;;;-149.00;100.00;66333.84;5140702;27;9559;-76
2021/11/03 08:31:58;;;;;;;;;27.00;26.00;;;;;-149.00;100.00;66333.84;5159851;27;9310;-75
2021/11/03 08:34:32;;;;;;;;;22.67;21.67;;;;;-149.00;100.00;66333.84;5159806;27;8778;-76
2021/11/03 08:37:03;;;;;;;;;27.67;23.33;;;;;-149.00;100.00;66333.84;5156209;27;9474;-80
2021/11/03 08:39:29;;;;;;;;;35.00;32.00;;;;;-149.00;100.00;66333.84;5159305;27;10228;-81
2021/11/03 08:42:04;;;;;;;;;26.33;25.33;;;;;-149.00;100.00;66333.84;5159617;27;9884;-77
2021/11/03 08:44:30;;;;;;;;;25.67;23.67;;;;;-149.00;100.00;66333.84;5158116;27;8823;-82
2021/11/03 08:46:55;;;;;;;;;33.50;29.75;;;;;-149.00;100.00;66333.84;5159553;27;10378;-81
2021/11/03 08:49:21;;;;;;;;;28.33;27.00;;;;;-149.00;100.00;66333.84;5159435;27;9646;-77
2021/11/03 08:51:46;;;;;;;;;30.33;27.00;;;;;-149.00;100.00;66333.84;5159583;27;8890;-78
2021/11/03 08:54:12;;;;;;;;;28.75;27.75;;;;;-149.00;100.00;66333.84;5159029;27;8797;-78
2021/11/03 08:56:39;;;;;;;;;32.00;29.25;;;;;-149.00;100.00;66333.84;5159407;27;10624;-81
2021/11/03 08:59:07;;;;;;;;;30.67;29.00;;;;;-149.00;100.00;66333.84;5158106;27;9724;-79
2021/11/03 09:01:33;;;;;;;;;32.75;30.25;;;;;-149.00;100.00;66333.84;5157881;27;9427;-77
2021/11/03 09:03:58;;;;;;;;;35.75;31.75;;;;;-149.00;100.00;66333.84;5159073;27;9754;-80
2021/11/03 09:06:24;;;;;;;;;32.67;28.67;;;;;-149.00;100.00;66333.84;5159020;27;8774;-78
2021/11/03 09:08:50;;;;;;;;;27.33;25.00;;;;;-149.00;100.00;66333.84;5159136;27;8785;-79
2021/11/03 09:11:20;;;;;;;;;30.75;28.25;;;;;-149.00;100.00;66333.84;5159250;27;8777;-76
2021/11/03 09:13:47;;;;;;;;;30.33;27.67;;;;;-149.00;100.00;66333.84;5159126;27;9511;-76
2021/11/03 09:16:13;;;;;;;;;33.00;30.00;;;;;-149.00;100.00;66333.84;5158910;27;9468;-79
2021/11/03 09:18:39;;;;;;;;;28.33;27.33;;;;;-149.00;100.00;66333.84;5158989;27;9594;-80
2021/11/03 09:21:07;;;;;;;;;27.00;25.00;;;;;-149.00;100.00;66333.84;5158852;27;8765;-79
2021/11/03 09:23:33;;;;;;;;;31.67;31.00;;;;;-149.00;100.00;66333.84;5156989;27;11494;-81
2021/11/03 09:25:59;;;;;;;;;29.67;29.67;;;;;-149.00;100.00;66333.84;5158809;27;9584;-80
2021/11/03 09:28:27;;;;;;;;;32.25;31.00;;;;;-149.00;100.00;66333.84;5158631;27;8801;-79
2021/11/03 09:30:54;;;;;;;;;27.33;27.00;;;;;-149.00;100.00;66333.84;5144979;27;9659;-76
2021/11/03 09:33:20;;;;;;;;;29.75;28.75;;;;;-149.00;100.00;66333.84;5138016;27;9524;-76
2021/11/03 09:35:48;;;;;;;;;34.67;32.00;;;;;-149.00;100.00;66333.84;5136420;27;9587;-78
2021/11/03 09:38:19;;;;;;;;;32.75;30.25;;;;;-149.00;100.00;66333.84;5137566;27;10121;-78
2021/11/03 09:41:07;;;;;;;;;33.50;30.75;;;;;-149.00;100.00;66333.84;5136232;27;9586;-76
2021/11/03 09:44:06;;;;;;;;;40.00;34.25;;;;;-149.00;100.00;66333.84;5136146;27;9490;-78
2021/11/03 09:46:45;;;;;;;;;37.50;33.25;;;;;-149.00;100.00;66333.84;5137470;27;9822;-80
2021/11/03 09:49:31;;;;;;;;;32.50;30.50;;;;;-149.00;100.00;66333.84;5137777;27;9826;-81
2021/11/03 09:52:01;;;;;;;;;33.50;31.00;;;;;-149.00;100.00;66333.84;5137588;27;9712;-80
2021/11/03 09:54:30;;;;;;;;;33.00;32.00;;;;;-149.00;100.00;66333.84;5137277;27;9555;-79
2021/11/03 09:57:07;;;;;;;;;36.75;32.50;;;;;-149.00;100.00;66333.84;5137555;27;9567;-78
2021/11/03 09:59:43;;;;;;;;;32.33;30.33;;;;;-149.00;100.00;66333.84;5137411;27;9674;-80
2021/11/03 10:02:18;;;;;;;;;40.50;33.50;;;;;-149.00;100.00;66333.84;5137349;27;9559;-78
2021/11/03 10:04:57;;;;;;;;;38.33;32.00;;;;;-149.00;100.00;66333.84;5137396;27;10658;-77
2021/11/03 10:07:25;;;;;;;;;37.75;32.50;;;;;-149.00;100.00;66333.84;5137469;27;9503;-77
2021/11/03 10:09:51;;;;;;;;;36.75;31.75;;;;;-149.00;100.00;66333.84;5136622;27;9636;-79
2021/11/03 10:12:19;;;;;;;;;29.67;29.33;;;;;-149.00;100.00;66333.84;5137520;27;9768;-81
2021/11/03 10:14:45;;;;;;;;;31.33;31.00;;;;;-149.00;100.00;66333.84;5135887;27;8861;-78
2021/11/03 10:17:31;;;;;;;;;32.33;29.33;;;;;-149.00;100.00;66333.84;5137342;27;9479;-79
2021/11/03 10:19:57;;;;;;;;;32.00;29.00;;;;;-149.00;100.00;66333.84;5137340;27;9334;-80
2021/11/03 10:22:35;;;;;;;;;31.00;29.67;;;;;-149.00;100.00;66333.84;5136982;27;9522;-81
2021/11/03 10:25:18;;;;;;;;;33.67;28.67;;;;;-149.00;100.00;66333.84;5136999;27;9418;-77
2021/11/03 10:27:49;;;;;;;;;30.00;27.33;;;;;-149.00;100.00;66333.84;5135447;27;9480;-80
2021/11/03 10:30:27;;;;;;;;;28.33;27.33;;;;;-149.00;100.00;66333.84;5145321;27;9357;-78
2021/11/03 10:32:54;;;;;;;;;28.33;27.67;;;;;-149.00;100.00;66333.84;5156420;27;9487;-77
2021/11/03 10:35:37;;;;;;;;;22.00;21.67;;;;;-149.00;100.00;66333.84;5157913;27;9442;-79
2021/11/03 10:38:18;;;;;;;;;24.33;22.67;;;;;-149.00;100.00;66333.84;5156133;27;9517;-77
2021/11/03 10:41:01;;;;;;;;;29.33;26.00;;;;;-149.00;100.00;66333.84;5157754;27;9097;-77
2021/11/03 10:43:40;;;;;;;;;31.00;28.00;;;;;-149.00;100.00;66333.84;5156217;27;9283;-79
2021/11/03 10:46:26;;;;;;;;;24.67;23.67;;;;;-149.00;100.00;66333.84;5156213;27;9268;-79
2021/11/03 10:49:07;;;;;;;;;28.33;27.67;;;;;-149.00;100.00;66333.84;5158149;27;9314;-81
2021/11/03 10:51:38;;;;;;;;;30.00;28.67;;;;;-149.00;100.00;66333.84;5157959;27;9469;-84
2021/11/03 10:54:14;;;;;;;;;24.67;22.67;;;;;-149.00;100.00;66333.84;5156044;27;9409;-82
2021/11/03 10:57:14;;;;;;;;;28.67;23.33;;;;;-149.00;100.00;66333.84;5158320;27;9319;-81
2021/11/03 10:59:50;;;;;;;;;26.33;22.67;;;;;-149.00;100.00;66333.84;5160867;27;9176;-81
2021/11/03 11:02:28;;;;;;;;;26.67;26.00;;;;;-149.00;100.00;66333.84;5158207;27;9878;-79
2021/11/03 11:04:56;;;;;;;;;23.00;23.00;;;;;-149.00;100.00;66333.84;5158386;27;9159;-80
2021/11/03 11:07:34;;;;;;;;;27.33;27.00;;;;;-149.00;100.00;66333.84;5159726;27;8924;-80
2021/11/03 11:10:11;;;;;;;;;23.67;23.67;;;;;-149.00;100.00;66333.84;5155707;27;9123;-80